createdAt,value
2023-08-23T00:00:26.862Z,51.42
2023-08-23T00:02:54.730Z,51.42
2023-08-23T00:05:22.724Z,51.71
2023-08-23T00:07:50.419Z,51.68
2023-08-23T00:10:18.425Z,51.42
2023-08-23T00:12:45.930Z,51.39
2023-08-23T00:15:13.400Z,51.85
2023-08-23T00:17:41.271Z,51.31
2023-08-23T00:20:09.203Z,51.04
2023-08-23T00:22:36.726Z,51.66
2023-08-23T00:25:04.911Z,51.87
2023-08-23T00:27:32.433Z,51.75
2023-08-23T00:29:59.953Z,52.05
2023-08-23T00:32:28.461Z,51.71
2023-08-23T00:34:56.339Z,51.50
2023-08-23T00:37:23.997Z,51.55
2023-08-23T00:39:51.760Z,51.71
2023-08-23T00:42:19.331Z,51.56
2023-08-23T00:44:46.835Z,52.06
2023-08-23T00:47:14.668Z,51.85
2023-08-23T00:49:42.177Z,52.33
2023-08-23T00:52:11.241Z,52.27
2023-08-23T00:54:39.025Z,52.18
2023-08-23T00:57:07.586Z,52.47
2023-08-23T00:59:36.940Z,52.76
2023-08-23T01:02:04.830Z,52.73
2023-08-23T01:04:32.402Z,52.62
2023-08-23T01:07:05.536Z,52.32
2023-08-23T01:09:44.154Z,52.49
2023-08-23T01:12:30.781Z,52.57
2023-08-23T01:15:06.434Z,52.44
2023-08-23T01:17:34.273Z,52.95
2023-08-23T01:20:03.562Z,52.43
2023-08-23T01:22:31.744Z,52.27
2023-08-23T01:24:59.805Z,52.05
2023-08-23T01:27:30.922Z,52.08
2023-08-23T01:30:00.312Z,52.11
2023-08-23T01:32:49.324Z,52.09
2023-08-23T01:35:21.368Z,52.33
2023-08-23T01:37:53.847Z,52.76
2023-08-23T01:40:21.366Z,52.90
2023-08-23T01:42:49.355Z,52.62
2023-08-23T01:45:17.050Z,52.42
2023-08-23T01:47:44.779Z,52.16
2023-08-23T01:50:13.481Z,52.31
2023-08-23T01:52:41.030Z,52.28
2023-08-23T01:55:09.245Z,52.35
2023-08-23T01:57:38.085Z,52.27
2023-08-23T02:00:06.302Z,52.08
2023-08-23T02:02:41.977Z,52.09
2023-08-23T02:05:09.926Z,52.14
2023-08-23T02:07:37.440Z,52.28
2023-08-23T02:10:05.399Z,52.25
2023-08-23T02:12:33.304Z,52.15
2023-08-23T02:15:00.779Z,52.09
2023-08-23T02:17:28.675Z,52.27
2023-08-23T02:19:56.170Z,52.34
2023-08-23T02:22:23.701Z,52.31
2023-08-23T02:24:51.482Z,52.39
2023-08-23T02:27:18.981Z,52.39
2023-08-23T02:29:46.559Z,52.24
2023-08-23T02:32:14.328Z,52.26
2023-08-23T02:34:42.057Z,52.40
2023-08-23T02:37:09.558Z,52.55
2023-08-23T02:39:37.306Z,52.46
2023-08-23T02:42:05.308Z,52.25
2023-08-23T02:44:32.885Z,52.17
2023-08-23T02:47:00.713Z,51.98
2023-08-23T02:49:28.619Z,51.87
2023-08-23T02:51:56.144Z,51.78
2023-08-23T02:54:23.900Z,51.98
2023-08-23T02:56:51.471Z,52.16
2023-08-23T02:59:19.023Z,52.12
2023-08-23T03:01:46.775Z,52.47
2023-08-23T03:04:14.375Z,52.57
2023-08-23T03:06:41.937Z,52.99
2023-08-23T03:09:09.693Z,53.02
2023-08-23T03:11:37.164Z,53.20
2023-08-23T03:14:04.695Z,53.15
2023-08-23T03:16:32.602Z,53.28
2023-08-23T03:19:00.321Z,53.13
2023-08-23T03:21:28.531Z,53.28
2023-08-23T03:23:56.690Z,53.20
2023-08-23T03:26:24.222Z,53.26
2023-08-23T03:28:52.624Z,53.04
2023-08-23T03:31:20.442Z,53.07
2023-08-23T03:33:47.988Z,53.10
2023-08-23T03:36:15.540Z,53.04
2023-08-23T03:38:43.369Z,53.09
2023-08-23T03:41:14.398Z,53.09
2023-08-23T03:43:42.022Z,53.20
2023-08-23T03:46:10.488Z,53.06
2023-08-23T03:48:38.029Z,53.26
2023-08-23T03:51:05.612Z,53.19
2023-08-23T03:53:33.389Z,53.10
2023-08-23T03:56:00.959Z,53.29
2023-08-23T03:58:30.319Z,53.29
2023-08-23T04:00:58.285Z,53.59
2023-08-23T04:03:26.227Z,53.64
2023-08-23T04:05:54.009Z,53.91
2023-08-23T04:08:21.490Z,54.30
2023-08-23T04:10:50.348Z,54.28
2023-08-23T04:13:18.348Z,54.11
2023-08-23T04:15:46.379Z,54.55
2023-08-23T04:18:14.204Z,54.40
2023-08-23T04:20:42.239Z,54.11
2023-08-23T04:23:10.115Z,54.69
2023-08-23T04:25:37.944Z,54.38
2023-08-23T04:28:05.932Z,54.41
2023-08-23T04:30:33.514Z,54.08
2023-08-23T04:33:02.118Z,53.59
2023-08-23T04:35:29.838Z,53.49
2023-08-23T04:37:57.470Z,53.22
2023-08-23T04:40:25.954Z,52.53
2023-08-23T04:42:53.483Z,51.58
2023-08-23T04:45:21.231Z,51.59
2023-08-23T04:47:50.253Z,51.75
2023-08-23T04:50:18.047Z,51.65
2023-08-23T04:52:47.482Z,52.16
2023-08-23T04:55:15.593Z,51.85
2023-08-23T04:57:43.156Z,51.55
2023-08-23T05:00:11.465Z,51.26
2023-08-23T05:02:40.187Z,51.06
2023-08-23T05:05:08.085Z,50.72
2023-08-23T05:07:36.496Z,50.75
2023-08-23T05:10:05.755Z,50.60
2023-08-23T05:12:33.663Z,50.57
2023-08-23T05:15:01.262Z,50.55
2023-08-23T05:17:29.376Z,50.45
2023-08-23T05:19:56.925Z,50.30
2023-08-23T05:22:24.496Z,49.98
2023-08-23T05:24:52.976Z,49.52
2023-08-23T05:27:20.484Z,49.08
2023-08-23T05:29:48.099Z,48.23
2023-08-23T05:32:15.913Z,47.89
2023-08-23T05:34:46.482Z,47.54
2023-08-23T05:37:14.846Z,47.11
2023-08-23T05:39:43.243Z,47.03
2023-08-23T05:42:10.768Z,46.33
2023-08-23T05:44:38.217Z,42.65
2023-08-23T05:47:06.325Z,40.83
2023-08-23T05:49:33.808Z,39.18
2023-08-23T05:52:01.386Z,38.54
2023-08-23T05:54:29.858Z,39.63
2023-08-23T05:57:00.675Z,40.98
2023-08-23T05:59:28.575Z,42.22
2023-08-23T06:01:56.322Z,43.03
2023-08-23T06:04:24.139Z,43.94
2023-08-23T06:06:51.671Z,44.46
2023-08-23T06:09:19.446Z,44.97
2023-08-23T06:11:47.244Z,45.28
2023-08-23T06:14:20.740Z,45.29
2023-08-23T06:16:48.960Z,45.32
2023-08-23T06:19:16.500Z,45.19
2023-08-23T06:21:44.366Z,45.35
2023-08-23T06:24:12.182Z,46.13
2023-08-23T06:26:39.771Z,45.89
2023-08-23T06:29:07.275Z,45.54
2023-08-23T06:31:35.061Z,45.50
2023-08-23T06:34:02.585Z,45.55
2023-08-23T06:36:30.434Z,46.15
2023-08-23T06:38:58.621Z,46.69
2023-08-23T06:41:26.202Z,46.95
2023-08-23T06:44:00.641Z,47.05
2023-08-23T06:46:29.262Z,46.97
2023-08-23T06:48:57.552Z,45.50
2023-08-23T06:51:28.496Z,45.77
2023-08-23T06:53:56.443Z,46.84
2023-08-23T06:56:23.974Z,46.22
2023-08-23T06:58:51.522Z,45.81
2023-08-23T07:01:19.595Z,46.57
2023-08-23T07:03:47.336Z,46.23
2023-08-23T07:06:16.228Z,46.44
2023-08-23T07:08:44.471Z,45.71
2023-08-23T07:11:12.055Z,46.32
2023-08-23T07:13:40.634Z,46.62
2023-08-23T07:16:08.652Z,46.53
2023-08-23T07:18:36.682Z,46.74
2023-08-23T07:21:04.699Z,47.14
2023-08-23T07:23:32.508Z,46.94
2023-08-23T07:26:03.756Z,46.18
2023-08-23T07:28:31.786Z,45.59
2023-08-23T07:30:59.734Z,46.45
2023-08-23T07:33:28.049Z,45.21
2023-08-23T07:35:59.312Z,45.83
2023-08-23T07:38:27.887Z,45.62
2023-08-23T07:41:03.641Z,46.21
2023-08-23T07:43:31.711Z,46.41
2023-08-23T07:46:01.432Z,45.85
2023-08-23T07:48:29.366Z,47.03
2023-08-23T07:50:58.490Z,45.79
2023-08-23T07:53:26.177Z,46.50
2023-08-23T07:55:53.732Z,47.59
2023-08-23T07:58:21.548Z,45.92
2023-08-23T08:00:49.043Z,46.25
2023-08-23T08:03:16.815Z,46.80
2023-08-23T08:05:44.740Z,47.65
2023-08-23T08:08:12.348Z,46.74
2023-08-23T08:10:40.162Z,46.25
2023-08-23T08:13:07.773Z,47.11
2023-08-23T08:15:36.517Z,46.27
2023-08-23T08:18:04.491Z,47.35
2023-08-23T08:20:32.123Z,47.50
2023-08-23T08:22:59.993Z,46.80
2023-08-23T08:25:28.267Z,45.74
2023-08-23T08:27:56.498Z,46.00
2023-08-23T08:30:24.042Z,46.64
2023-08-23T08:32:52.163Z,46.26
2023-08-23T08:35:19.757Z,45.80
2023-08-23T08:37:47.638Z,47.06
2023-08-23T08:40:15.567Z,47.14
2023-08-23T08:42:43.153Z,46.43
2023-08-23T08:45:11.349Z,45.80
2023-08-23T08:47:39.204Z,47.58
2023-08-23T08:50:06.892Z,46.52
2023-08-23T08:52:34.458Z,47.06
2023-08-23T08:55:02.530Z,46.64
2023-08-23T08:57:30.437Z,46.42
2023-08-23T08:59:59.458Z,47.59
2023-08-23T09:02:27.524Z,45.54
2023-08-23T09:04:55.152Z,46.41
2023-08-23T09:07:22.779Z,46.32
2023-08-23T09:09:51.832Z,45.73
2023-08-23T09:12:20.291Z,45.04
2023-08-23T09:14:51.610Z,45.93
2023-08-23T09:17:24.261Z,45.88
2023-08-23T09:19:52.736Z,46.73
2023-08-23T09:22:22.167Z,45.28
2023-08-23T09:24:49.863Z,46.09
2023-08-23T09:27:31.169Z,47.22
2023-08-23T09:30:05.498Z,45.56
2023-08-23T09:32:33.226Z,45.29
2023-08-23T09:35:11.539Z,45.42
2023-08-23T09:37:47.172Z,44.97
2023-08-23T09:40:30.145Z,44.27
2023-08-23T09:42:59.953Z,44.37
2023-08-23T09:45:28.475Z,44.78
2023-08-23T09:48:00.489Z,43.73
2023-08-23T09:50:28.644Z,42.13
2023-08-23T09:53:03.897Z,41.88
2023-08-23T09:55:33.614Z,43.29
2023-08-23T09:58:02.019Z,42.21
2023-08-23T10:00:30.010Z,42.82
2023-08-23T10:02:59.158Z,42.49
2023-08-23T10:05:28.563Z,41.49
2023-08-23T10:07:57.867Z,41.97
2023-08-23T10:10:27.164Z,41.96
2023-08-23T10:12:56.814Z,40.54
2023-08-23T10:15:29.879Z,41.33
2023-08-23T10:17:59.574Z,41.06
2023-08-23T10:20:27.299Z,41.21
2023-08-23T10:22:57.453Z,40.68
2023-08-23T10:25:25.255Z,40.48
2023-08-23T10:27:54.938Z,40.31
2023-08-23T10:30:24.094Z,40.74
2023-08-23T10:32:55.759Z,40.73
2023-08-23T10:35:32.376Z,40.68
2023-08-23T10:38:00.976Z,39.87
2023-08-23T10:40:29.873Z,40.15
2023-08-23T10:42:58.064Z,40.55
2023-08-23T10:45:26.583Z,40.67
2023-08-23T10:47:54.583Z,39.68
2023-08-23T10:50:22.596Z,39.30
2023-08-23T10:52:51.230Z,38.74
2023-08-23T10:55:19.129Z,38.97
2023-08-23T10:57:47.131Z,39.38
2023-08-23T11:00:15.738Z,39.73
2023-08-23T11:02:43.389Z,37.37
2023-08-23T11:05:11.276Z,37.86
2023-08-23T11:07:39.821Z,38.15
2023-08-23T11:10:09.619Z,38.02
2023-08-23T11:12:39.708Z,38.84
2023-08-23T11:15:08.065Z,37.45
2023-08-23T11:17:35.657Z,37.93
2023-08-23T11:20:04.612Z,38.08
2023-08-23T11:22:32.479Z,37.87
2023-08-23T11:25:00.555Z,39.25
2023-08-23T11:27:28.202Z,39.58
2023-08-23T11:30:02.451Z,39.00
2023-08-23T11:32:32.204Z,39.36
2023-08-23T11:35:01.276Z,39.55
2023-08-23T11:37:29.706Z,39.66
2023-08-23T11:39:58.164Z,39.69
2023-08-23T11:42:26.799Z,39.25
2023-08-23T11:44:55.924Z,39.39
2023-08-23T11:47:27.305Z,39.07
2023-08-23T11:49:55.160Z,40.03
2023-08-23T11:52:22.824Z,39.16
2023-08-23T11:54:56.029Z,40.20
2023-08-23T11:57:23.841Z,39.60
2023-08-23T11:59:51.407Z,40.09
2023-08-23T12:02:19.007Z,39.95
2023-08-23T12:05:06.841Z,40.46
2023-08-23T12:07:34.377Z,40.95
2023-08-23T12:10:02.292Z,41.90
2023-08-23T12:12:29.843Z,42.25
2023-08-23T12:14:57.397Z,41.74
2023-08-23T12:17:25.214Z,40.37
2023-08-23T12:19:52.991Z,40.25
2023-08-23T12:22:20.587Z,42.02
2023-08-23T12:24:48.646Z,41.27
2023-08-23T12:27:16.209Z,41.18
2023-08-23T12:29:43.816Z,40.54
2023-08-23T12:32:11.635Z,41.01
2023-08-23T12:34:39.189Z,41.60
2023-08-23T12:37:06.964Z,41.19
2023-08-23T12:39:34.800Z,42.44
2023-08-23T12:42:02.373Z,41.33
2023-08-23T12:44:31.228Z,41.25
2023-08-23T12:46:59.080Z,40.86
2023-08-23T12:49:26.640Z,41.12
2023-08-23T12:51:54.267Z,41.34
2023-08-23T12:54:24.131Z,41.37
2023-08-23T12:56:51.900Z,41.62
2023-08-23T12:59:19.472Z,40.47
2023-08-23T13:01:47.309Z,40.22
2023-08-23T13:04:14.896Z,41.49
2023-08-23T13:06:42.457Z,41.35
2023-08-23T13:09:10.272Z,41.58
2023-08-23T13:11:38.558Z,41.83
2023-08-23T13:14:06.140Z,41.62
2023-08-23T13:16:33.955Z,42.67
2023-08-23T13:19:01.561Z,41.20
2023-08-23T13:21:29.172Z,41.04
2023-08-23T13:24:00.180Z,41.95
2023-08-23T13:26:28.044Z,41.21
2023-08-23T13:28:55.692Z,41.17
2023-08-23T13:31:24.665Z,41.55
2023-08-23T13:33:52.294Z,41.08
2023-08-23T13:36:20.209Z,39.42
2023-08-23T13:38:48.121Z,39.79
2023-08-23T13:41:15.664Z,39.95
2023-08-23T13:43:43.235Z,40.28
2023-08-23T13:46:11.532Z,40.75
2023-08-23T13:48:41.256Z,40.83
2023-08-23T13:51:10.814Z,40.72
2023-08-23T13:53:39.087Z,39.77
2023-08-23T13:56:06.548Z,39.35
2023-08-23T13:58:34.109Z,38.93
2023-08-23T14:01:02.042Z,38.83
2023-08-23T14:03:29.929Z,38.37
2023-08-23T14:06:05.088Z,38.12
2023-08-23T14:08:32.942Z,38.17
2023-08-23T14:11:00.559Z,38.20
2023-08-23T14:13:28.176Z,38.45
2023-08-23T14:15:56.012Z,38.60
2023-08-23T14:18:24.424Z,38.11
2023-08-23T14:20:52.013Z,39.80
2023-08-23T14:23:20.123Z,39.67
2023-08-23T14:25:47.793Z,39.38
2023-08-23T14:28:15.379Z,38.63
2023-08-23T14:30:45.526Z,37.89
2023-08-23T14:33:13.304Z,37.35
2023-08-23T14:35:42.070Z,38.00
2023-08-23T14:38:09.964Z,38.27
2023-08-23T14:40:37.581Z,37.16
2023-08-23T14:43:05.800Z,36.84
2023-08-23T14:45:34.403Z,36.59
2023-08-23T14:48:02.010Z,36.18
2023-08-23T14:50:29.595Z,36.42
2023-08-23T14:52:57.472Z,36.10
2023-08-23T14:55:26.620Z,35.70
2023-08-23T14:57:54.133Z,35.91
2023-08-23T15:00:22.101Z,35.97
2023-08-23T15:02:49.828Z,35.73
2023-08-23T15:05:17.461Z,35.73
2023-08-23T15:07:45.509Z,35.97
2023-08-23T15:10:13.253Z,36.30
2023-08-23T15:12:40.814Z,36.82
2023-08-23T15:15:09.957Z,36.57
2023-08-23T15:17:37.803Z,36.26
2023-08-23T15:20:06.504Z,36.15
2023-08-23T15:22:34.468Z,36.32
2023-08-23T15:25:02.429Z,36.51
2023-08-23T15:27:47.568Z,37.16
2023-08-23T15:30:15.384Z,37.04
2023-08-23T15:32:43.118Z,37.32
2023-08-23T15:35:10.982Z,37.32
2023-08-23T15:37:39.193Z,36.99
2023-08-23T15:40:07.469Z,37.21
2023-08-23T15:42:35.101Z,37.05
2023-08-23T15:45:02.911Z,36.93
2023-08-23T15:47:30.624Z,36.98
2023-08-23T15:49:58.138Z,37.85
2023-08-23T15:52:25.995Z,38.09
2023-08-23T15:54:53.570Z,38.13
2023-08-23T15:57:21.772Z,38.44
2023-08-23T15:59:49.678Z,38.55
2023-08-23T16:02:17.305Z,39.35
2023-08-23T16:04:45.365Z,38.60
2023-08-23T16:07:13.148Z,39.80
2023-08-23T16:09:43.210Z,39.49
2023-08-23T16:12:11.640Z,39.38
2023-08-23T16:14:42.388Z,40.29
2023-08-23T16:17:10.171Z,40.16
2023-08-23T16:19:38.865Z,40.72
2023-08-23T16:22:06.593Z,41.24
2023-08-23T16:24:34.310Z,41.31
2023-08-23T16:27:02.108Z,41.49
2023-08-23T16:29:29.681Z,40.93
2023-08-23T16:31:57.283Z,40.59
2023-08-23T16:34:25.570Z,41.10
2023-08-23T16:36:53.102Z,40.33
2023-08-23T16:39:20.976Z,41.38
2023-08-23T16:41:49.418Z,41.32
2023-08-23T16:44:17.802Z,41.05
2023-08-23T16:46:45.325Z,40.81
2023-08-23T16:49:13.130Z,40.39
2023-08-23T16:51:40.765Z,41.16
2023-08-23T16:54:08.446Z,40.77
2023-08-23T16:56:36.338Z,40.29
2023-08-23T16:59:04.001Z,40.72
2023-08-23T17:01:31.642Z,40.57
2023-08-23T17:03:59.648Z,40.87
2023-08-23T17:06:27.573Z,40.75
2023-08-23T17:08:55.108Z,41.58
2023-08-23T17:11:22.923Z,40.61
2023-08-23T17:13:50.605Z,40.78
2023-08-23T17:16:18.357Z,41.12
2023-08-23T17:18:46.227Z,40.66
2023-08-23T17:21:13.846Z,40.83
2023-08-23T17:23:41.622Z,40.56
2023-08-23T17:26:09.755Z,40.61
2023-08-23T17:28:39.435Z,40.58
2023-08-23T17:31:08.545Z,41.10
2023-08-23T17:33:36.918Z,41.43
2023-08-23T17:36:06.357Z,41.08
2023-08-23T17:38:34.121Z,41.17
2023-08-23T17:41:06.181Z,41.18
2023-08-23T17:43:35.041Z,40.70
2023-08-23T17:46:07.924Z,40.67
2023-08-23T17:48:35.580Z,41.08
2023-08-23T17:51:03.485Z,40.84
2023-08-23T17:53:31.407Z,41.21
2023-08-23T17:56:05.020Z,41.40
2023-08-23T17:58:32.885Z,42.33
2023-08-23T18:01:00.661Z,42.30
2023-08-23T18:03:28.779Z,42.23
2023-08-23T18:05:56.297Z,42.48
2023-08-23T18:08:23.962Z,42.53
2023-08-23T18:10:54.239Z,43.00
2023-08-23T18:13:21.945Z,43.16
2023-08-23T18:15:49.596Z,42.97
2023-08-23T18:18:20.155Z,43.12
2023-08-23T18:20:47.984Z,43.43
2023-08-23T18:23:15.567Z,43.33
2023-08-23T18:25:43.728Z,43.45
2023-08-23T18:28:11.229Z,43.57
2023-08-23T18:30:39.900Z,43.69
2023-08-23T18:33:09.390Z,44.10
2023-08-23T18:35:37.023Z,44.26
2023-08-23T18:38:04.729Z,44.09
2023-08-23T18:40:32.507Z,44.17
2023-08-23T18:43:00.197Z,44.25
2023-08-23T18:45:27.760Z,44.59
2023-08-23T18:47:55.621Z,44.67
2023-08-23T18:50:23.168Z,44.31
2023-08-23T18:52:51.741Z,44.46
2023-08-23T18:55:19.927Z,44.40
2023-08-23T18:57:50.505Z,44.45
2023-08-23T19:00:18.238Z,44.25
2023-08-23T19:02:46.254Z,44.28
2023-08-23T19:05:20.392Z,45.03
2023-08-23T19:07:50.522Z,44.99
2023-08-23T19:10:18.132Z,45.21
2023-08-23T19:12:46.809Z,44.57
2023-08-23T19:15:15.155Z,45.09
2023-08-23T19:17:45.992Z,45.68
2023-08-23T19:20:14.472Z,45.82
2023-08-23T19:22:42.503Z,45.83
2023-08-23T19:25:10.184Z,45.81
2023-08-23T19:27:37.773Z,46.03
2023-08-23T19:30:26.152Z,46.16
2023-08-23T19:32:54.502Z,46.34
2023-08-23T19:35:23.482Z,47.03
2023-08-23T19:37:52.015Z,46.87
2023-08-23T19:40:19.979Z,47.06
2023-08-23T19:42:47.800Z,46.94
2023-08-23T19:45:16.289Z,47.10
2023-08-23T19:47:44.156Z,46.90
2023-08-23T19:50:12.036Z,46.85
2023-08-23T19:52:39.654Z,46.60
2023-08-23T19:55:07.697Z,46.65
2023-08-23T19:57:37.856Z,46.15
2023-08-23T20:00:06.105Z,46.06
2023-08-23T20:02:42.529Z,45.86
2023-08-23T20:05:12.722Z,45.85
2023-08-23T20:07:42.260Z,45.47
2023-08-23T20:10:10.224Z,45.49
2023-08-23T20:12:39.305Z,45.60
2023-08-23T20:15:07.670Z,45.22
2023-08-23T20:17:35.824Z,45.28
2023-08-23T20:20:04.012Z,45.82
2023-08-23T20:22:31.847Z,45.22
2023-08-23T20:25:00.027Z,45.27
2023-08-23T20:27:27.718Z,45.06
2023-08-23T20:29:55.356Z,45.16
2023-08-23T20:32:23.408Z,44.88
2023-08-23T20:34:51.118Z,44.96
2023-08-23T20:37:18.611Z,44.79
2023-08-23T20:39:46.469Z,45.42
2023-08-23T20:42:14.294Z,45.63
2023-08-23T20:44:41.990Z,45.78
2023-08-23T20:47:09.970Z,45.79
2023-08-23T20:49:37.947Z,45.78
2023-08-23T20:52:05.767Z,45.88
2023-08-23T20:54:33.801Z,46.03
2023-08-23T20:57:01.350Z,45.88
2023-08-23T20:59:29.041Z,45.57
2023-08-23T21:01:57.063Z,45.85
2023-08-23T21:04:26.092Z,45.98
2023-08-23T21:06:53.682Z,46.20
2023-08-23T21:09:21.545Z,46.04
2023-08-23T21:11:49.216Z,46.01
2023-08-23T21:14:16.793Z,46.30
2023-08-23T21:16:45.482Z,46.76
2023-08-23T21:19:13.913Z,47.15
2023-08-23T21:21:41.460Z,47.15
2023-08-23T21:24:09.735Z,47.27
2023-08-23T21:26:37.221Z,46.90
2023-08-23T21:29:04.790Z,47.00
2023-08-23T21:31:32.900Z,47.09
2023-08-23T21:34:00.468Z,47.09
2023-08-23T21:36:28.020Z,47.24
2023-08-23T21:38:55.766Z,47.36
2023-08-23T21:41:23.291Z,47.51
2023-08-23T21:43:50.753Z,47.59
2023-08-23T21:46:18.663Z,47.95
2023-08-23T21:48:46.243Z,48.34
2023-08-23T21:51:13.796Z,48.60
2023-08-23T21:53:41.673Z,49.03
2023-08-23T21:56:09.218Z,49.92
2023-08-23T21:58:36.692Z,49.94
2023-08-23T22:01:04.613Z,49.83
2023-08-23T22:03:42.080Z,49.96
2023-08-23T22:06:11.564Z,49.75
2023-08-23T22:08:41.536Z,49.02
2023-08-23T22:11:15.407Z,48.71
2023-08-23T22:13:44.460Z,48.71
2023-08-23T22:16:13.843Z,48.69
2023-08-23T22:18:42.469Z,48.74
2023-08-23T22:21:11.446Z,48.83
2023-08-23T22:23:39.183Z,49.31
2023-08-23T22:26:07.118Z,49.42
2023-08-23T22:28:35.109Z,49.67
2023-08-23T22:31:02.854Z,50.02
2023-08-23T22:33:30.456Z,49.86
2023-08-23T22:35:59.013Z,50.06
2023-08-23T22:38:27.293Z,50.27
2023-08-23T22:40:56.192Z,50.47
2023-08-23T22:43:24.430Z,50.74
2023-08-23T22:45:53.246Z,50.94
2023-08-23T22:48:20.836Z,50.92
2023-08-23T22:50:49.023Z,50.90
2023-08-23T22:53:16.463Z,51.00
2023-08-23T22:55:44.038Z,51.36
2023-08-23T22:58:11.867Z,51.28
2023-08-23T23:00:39.432Z,51.50
2023-08-23T23:03:07.024Z,51.53
2023-08-23T23:05:37.737Z,51.72
2023-08-23T23:08:06.840Z,51.74
2023-08-23T23:10:34.662Z,52.02
2023-08-23T23:13:03.338Z,51.94
2023-08-23T23:15:31.132Z,52.02
2023-08-23T23:17:58.917Z,52.64
2023-08-23T23:20:26.435Z,52.90
2023-08-23T23:22:54.066Z,52.82
2023-08-23T23:25:21.896Z,53.04
2023-08-23T23:27:49.644Z,53.68
2023-08-23T23:30:17.558Z,53.92
2023-08-23T23:32:45.477Z,54.34
2023-08-23T23:35:13.652Z,54.48
2023-08-23T23:37:41.176Z,54.29
2023-08-23T23:40:10.451Z,54.37
2023-08-23T23:42:38.153Z,54.60
2023-08-23T23:45:06.265Z,54.58
2023-08-23T23:47:34.089Z,54.74
2023-08-23T23:50:02.306Z,54.77
2023-08-23T23:52:29.823Z,55.04
2023-08-23T23:54:57.636Z,54.75
2023-08-23T23:57:25.122Z,54.88
2023-08-23T23:59:52.772Z,54.75
